sensor_id;sensor_type;location;lat;lon;timestamp;P1;durP1;ratioP1;P2;durP2;ratioP2
34064;SDS011;20339;49.754;20.158;2024-03-22T00:02:11;20.80;;;14.20;;
34064;SDS011;20339;49.754;20.158;2024-03-22T00:04:42;21.10;;;14.10;;
34064;SDS011;20339;49.754;20.158;2024-03-22T00:07:13;23.60;;;14.10;;
34064;SDS011;20339;49.754;20.158;2024-03-22T00:09:43;21.10;;;14.30;;
34064;SDS011;20339;49.754;20.158;2024-03-22T00:12:14;21.20;;;13.10;;
34064;SDS011;20339;49.754;20.158;2024-03-22T00:14:45;21.50;;;14.90;;
34064;SDS011;20339;49.754;20.158;2024-03-22T00:17:15;22.60;;;14.10;;
34064;SDS011;20339;49.754;20.158;2024-03-22T00:19:46;21.70;;;14.40;;
34064;SDS011;20339;49.754;20.158;2024-03-22T00:22:17;22.70;;;13.70;;
34064;SDS011;20339;49.754;20.158;2024-03-22T00:24:47;19.70;;;13.90;;
34064;SDS011;20339;49.754;20.158;2024-03-22T00:27:18;19.90;;;12.90;;
34064;SDS011;20339;49.754;20.158;2024-03-22T00:29:48;21.20;;;14.30;;
34064;SDS011;20339;49.754;20.158;2024-03-22T00:32:19;20.00;;;13.00;;
34064;SDS011;20339;49.754;20.158;2024-03-22T00:34:49;22.70;;;14.00;;
34064;SDS011;20339;49.754;20.158;2024-03-22T00:37:20;23.50;;;13.50;;
34064;SDS011;20339;49.754;20.158;2024-03-22T00:39:51;19.90;;;12.40;;
34064;SDS011;20339;49.754;20.158;2024-03-22T00:42:22;20.40;;;14.20;;
34064;SDS011;20339;49.754;20.158;2024-03-22T00:44:52;19.20;;;12.40;;
34064;SDS011;20339;49.754;20.158;2024-03-22T00:47:24;19.30;;;13.20;;
34064;SDS011;20339;49.754;20.158;2024-03-22T00:49:55;20.30;;;13.40;;
34064;SDS011;20339;49.754;20.158;2024-03-22T00:52:26;18.20;;;12.60;;
34064;SDS011;20339;49.754;20.158;2024-03-22T00:54:57;20.00;;;14.10;;
34064;SDS011;20339;49.754;20.158;2024-03-22T00:57:27;21.20;;;13.20;;
34064;SDS011;20339;49.754;20.158;2024-03-22T00:59:58;21.40;;;13.10;;
34064;SDS011;20339;49.754;20.158;2024-03-22T01:02:28;19.00;;;13.10;;
34064;SDS011;20339;49.754;20.158;2024-03-22T01:04:59;20.30;;;13.40;;
34064;SDS011;20339;49.754;20.158;2024-03-22T01:07:32;21.00;;;13.90;;
34064;SDS011;20339;49.754;20.158;2024-03-22T01:10:03;18.10;;;12.20;;
34064;SDS011;20339;49.754;20.158;2024-03-22T01:12:36;21.70;;;13.20;;
34064;SDS011;20339;49.754;20.158;2024-03-22T01:15:07;18.60;;;12.70;;
34064;SDS011;20339;49.754;20.158;2024-03-22T01:17:38;20.90;;;12.80;;
34064;SDS011;20339;49.754;20.158;2024-03-22T01:20:10;18.50;;;13.00;;
34064;SDS011;20339;49.754;20.158;2024-03-22T01:22:41;21.70;;;13.60;;
34064;SDS011;20339;49.754;20.158;2024-03-22T01:25:12;18.50;;;13.30;;
34064;SDS011;20339;49.754;20.158;2024-03-22T01:27:42;20.00;;;14.30;;
34064;SDS011;20339;49.754;20.158;2024-03-22T01:30:13;21.30;;;15.40;;
34064;SDS011;20339;49.754;20.158;2024-03-22T01:32:43;20.60;;;14.00;;
34064;SDS011;20339;49.754;20.158;2024-03-22T01:35:14;21.50;;;13.30;;
34064;SDS011;20339;49.754;20.158;2024-03-22T01:37:45;22.40;;;15.40;;
34064;SDS011;20339;49.754;20.158;2024-03-22T01:40:15;23.30;;;15.40;;
34064;SDS011;20339;49.754;20.158;2024-03-22T01:42:46;22.80;;;14.70;;
34064;SDS011;20339;49.754;20.158;2024-03-22T01:45:17;26.20;;;16.90;;
34064;SDS011;20339;49.754;20.158;2024-03-22T01:47:47;24.10;;;16.00;;
34064;SDS011;20339;49.754;20.158;2024-03-22T01:50:18;25.30;;;16.20;;
34064;SDS011;20339;49.754;20.158;2024-03-22T01:52:49;21.50;;;14.60;;
34064;SDS011;20339;49.754;20.158;2024-03-22T01:55:20;25.40;;;14.80;;
34064;SDS011;20339;49.754;20.158;2024-03-22T01:57:52;23.00;;;15.10;;
34064;SDS011;20339;49.754;20.158;2024-03-22T02:00:22;22.90;;;15.30;;
34064;SDS011;20339;49.754;20.158;2024-03-22T02:02:53;25.20;;;16.50;;
34064;SDS011;20339;49.754;20.158;2024-03-22T02:05:23;21.90;;;15.70;;
34064;SDS011;20339;49.754;20.158;2024-03-22T02:07:54;24.70;;;16.00;;
34064;SDS011;20339;49.754;20.158;2024-03-22T02:10:27;24.50;;;16.30;;
34064;SDS011;20339;49.754;20.158;2024-03-22T02:12:58;23.10;;;16.00;;
34064;SDS011;20339;49.754;20.158;2024-03-22T02:15:29;24.70;;;17.20;;
34064;SDS011;20339;49.754;20.158;2024-03-22T02:17:59;24.70;;;17.30;;
34064;SDS011;20339;49.754;20.158;2024-03-22T02:20:30;22.70;;;15.90;;
34064;SDS011;20339;49.754;20.158;2024-03-22T02:23:01;22.10;;;16.10;;
34064;SDS011;20339;49.754;20.158;2024-03-22T02:25:31;24.70;;;17.10;;
34064;SDS011;20339;49.754;20.158;2024-03-22T02:28:05;24.70;;;17.80;;
34064;SDS011;20339;49.754;20.158;2024-03-22T02:30:35;26.20;;;17.90;;
34064;SDS011;20339;49.754;20.158;2024-03-22T02:33:06;28.80;;;20.00;;
34064;SDS011;20339;49.754;20.158;2024-03-22T02:35:36;26.20;;;17.90;;
34064;SDS011;20339;49.754;20.158;2024-03-22T02:38:07;29.70;;;20.70;;
34064;SDS011;20339;49.754;20.158;2024-03-22T02:40:38;32.40;;;21.40;;
34064;SDS011;20339;49.754;20.158;2024-03-22T02:43:09;28.70;;;20.40;;
34064;SDS011;20339;49.754;20.158;2024-03-22T02:45:40;28.90;;;19.70;;
34064;SDS011;20339;49.754;20.158;2024-03-22T02:48:10;28.20;;;19.90;;
34064;SDS011;20339;49.754;20.158;2024-03-22T02:50:41;28.60;;;19.80;;
34064;SDS011;20339;49.754;20.158;2024-03-22T02:53:12;30.30;;;22.10;;
34064;SDS011;20339;49.754;20.158;2024-03-22T02:55:42;30.00;;;20.80;;
34064;SDS011;20339;49.754;20.158;2024-03-22T02:58:13;27.20;;;19.50;;
34064;SDS011;20339;49.754;20.158;2024-03-22T03:00:43;27.60;;;19.40;;
34064;SDS011;20339;49.754;20.158;2024-03-22T03:03:14;28.20;;;18.80;;
34064;SDS011;20339;49.754;20.158;2024-03-22T03:05:47;29.00;;;19.30;;
34064;SDS011;20339;49.754;20.158;2024-03-22T03:08:17;28.10;;;18.80;;
34064;SDS011;20339;49.754;20.158;2024-03-22T03:10:48;23.40;;;16.10;;
34064;SDS011;20339;49.754;20.158;2024-03-22T03:13:18;21.20;;;16.00;;
34064;SDS011;20339;49.754;20.158;2024-03-22T03:15:49;23.70;;;16.60;;
34064;SDS011;20339;49.754;20.158;2024-03-22T03:18:19;29.30;;;17.90;;
34064;SDS011;20339;49.754;20.158;2024-03-22T03:20:50;24.50;;;17.80;;
34064;SDS011;20339;49.754;20.158;2024-03-22T03:23:21;26.20;;;18.20;;
34064;SDS011;20339;49.754;20.158;2024-03-22T03:25:52;24.60;;;16.50;;
34064;SDS011;20339;49.754;20.158;2024-03-22T03:28:22;22.50;;;17.20;;
34064;SDS011;20339;49.754;20.158;2024-03-22T03:30:53;24.50;;;17.90;;
34064;SDS011;20339;49.754;20.158;2024-03-22T03:33:24;27.40;;;19.20;;
34064;SDS011;20339;49.754;20.158;2024-03-22T03:35:55;27.00;;;19.00;;
34064;SDS011;20339;49.754;20.158;2024-03-22T03:38:25;24.10;;;17.40;;
34064;SDS011;20339;49.754;20.158;2024-03-22T03:40:58;26.00;;;19.40;;
34064;SDS011;20339;49.754;20.158;2024-03-22T03:43:29;26.20;;;17.40;;
34064;SDS011;20339;49.754;20.158;2024-03-22T03:45:59;24.00;;;17.10;;
34064;SDS011;20339;49.754;20.158;2024-03-22T03:48:30;23.70;;;17.70;;
34064;SDS011;20339;49.754;20.158;2024-03-22T03:51:00;25.90;;;19.00;;
34064;SDS011;20339;49.754;20.158;2024-03-22T03:53:31;32.40;;;23.50;;
34064;SDS011;20339;49.754;20.158;2024-03-22T03:56:04;27.90;;;21.30;;
34064;SDS011;20339;49.754;20.158;2024-03-22T03:58:35;27.90;;;20.60;;
34064;SDS011;20339;49.754;20.158;2024-03-22T04:01:07;26.40;;;21.10;;
34064;SDS011;20339;49.754;20.158;2024-03-22T04:03:38;25.90;;;19.60;;
34064;SDS011;20339;49.754;20.158;2024-03-22T04:06:09;27.00;;;19.90;;
34064;SDS011;20339;49.754;20.158;2024-03-22T04:08:40;25.20;;;18.80;;
34064;SDS011;20339;49.754;20.158;2024-03-22T04:11:11;27.00;;;19.00;;
34064;SDS011;20339;49.754;20.158;2024-03-22T04:13:42;26.10;;;19.60;;
34064;SDS011;20339;49.754;20.158;2024-03-22T04:16:13;27.80;;;20.60;;
34064;SDS011;20339;49.754;20.158;2024-03-22T04:18:43;25.80;;;20.00;;
34064;SDS011;20339;49.754;20.158;2024-03-22T04:21:14;34.10;;;25.50;;
34064;SDS011;20339;49.754;20.158;2024-03-22T04:23:45;37.60;;;27.80;;
34064;SDS011;20339;49.754;20.158;2024-03-22T04:26:18;29.90;;;22.60;;
34064;SDS011;20339;49.754;20.158;2024-03-22T04:28:50;32.10;;;25.20;;
34064;SDS011;20339;49.754;20.158;2024-03-22T04:31:21;39.20;;;31.60;;
34064;SDS011;20339;49.754;20.158;2024-03-22T04:33:52;27.90;;;22.20;;
34064;SDS011;20339;49.754;20.158;2024-03-22T04:36:22;28.90;;;22.30;;
34064;SDS011;20339;49.754;20.158;2024-03-22T04:38:53;32.20;;;25.90;;
34064;SDS011;20339;49.754;20.158;2024-03-22T04:41:24;39.90;;;32.30;;
34064;SDS011;20339;49.754;20.158;2024-03-22T04:43:55;35.10;;;26.80;;
34064;SDS011;20339;49.754;20.158;2024-03-22T04:46:25;36.30;;;27.10;;
34064;SDS011;20339;49.754;20.158;2024-03-22T04:48:56;41.40;;;32.30;;
34064;SDS011;20339;49.754;20.158;2024-03-22T04:51:27;47.00;;;38.00;;
34064;SDS011;20339;49.754;20.158;2024-03-22T04:53:57;54.40;;;41.30;;
34064;SDS011;20339;49.754;20.158;2024-03-22T04:56:28;44.70;;;35.30;;
34064;SDS011;20339;49.754;20.158;2024-03-22T04:58:59;47.20;;;35.90;;
34064;SDS011;20339;49.754;20.158;2024-03-22T05:01:30;44.50;;;35.80;;
34064;SDS011;20339;49.754;20.158;2024-03-22T05:04:00;43.50;;;35.20;;
34064;SDS011;20339;49.754;20.158;2024-03-22T05:06:31;45.10;;;35.60;;
34064;SDS011;20339;49.754;20.158;2024-03-22T05:09:02;45.20;;;35.80;;
34064;SDS011;20339;49.754;20.158;2024-03-22T05:11:33;43.00;;;33.50;;
34064;SDS011;20339;49.754;20.158;2024-03-22T05:14:04;40.80;;;33.40;;
34064;SDS011;20339;49.754;20.158;2024-03-22T05:16:34;38.50;;;30.90;;
34064;SDS011;20339;49.754;20.158;2024-03-22T05:19:07;42.60;;;35.30;;
34064;SDS011;20339;49.754;20.158;2024-03-22T05:21:38;42.90;;;33.40;;
34064;SDS011;20339;49.754;20.158;2024-03-22T05:24:09;38.90;;;28.60;;
34064;SDS011;20339;49.754;20.158;2024-03-22T05:26:39;38.70;;;31.40;;
34064;SDS011;20339;49.754;20.158;2024-03-22T05:29:10;37.50;;;32.60;;
34064;SDS011;20339;49.754;20.158;2024-03-22T05:31:46;36.50;;;30.50;;
34064;SDS011;20339;49.754;20.158;2024-03-22T05:34:19;35.60;;;29.60;;
34064;SDS011;20339;49.754;20.158;2024-03-22T05:36:50;40.80;;;31.80;;
34064;SDS011;20339;49.754;20.158;2024-03-22T05:39:22;36.30;;;30.20;;
34064;SDS011;20339;49.754;20.158;2024-03-22T05:41:52;34.60;;;27.80;;
34064;SDS011;20339;49.754;20.158;2024-03-22T05:44:23;38.70;;;31.30;;
34064;SDS011;20339;49.754;20.158;2024-03-22T05:46:53;37.40;;;29.00;;
34064;SDS011;20339;49.754;20.158;2024-03-22T05:49:24;37.60;;;27.80;;
34064;SDS011;20339;49.754;20.158;2024-03-22T05:51:55;35.60;;;30.60;;
34064;SDS011;20339;49.754;20.158;2024-03-22T05:54:26;38.00;;;32.10;;
34064;SDS011;20339;49.754;20.158;2024-03-22T05:56:56;38.20;;;31.80;;
34064;SDS011;20339;49.754;20.158;2024-03-22T05:59:29;39.50;;;30.90;;
34064;SDS011;20339;49.754;20.158;2024-03-22T06:02:00;38.80;;;32.00;;
34064;SDS011;20339;49.754;20.158;2024-03-22T06:04:31;36.40;;;28.80;;
34064;SDS011;20339;49.754;20.158;2024-03-22T06:07:02;38.90;;;30.10;;
34064;SDS011;20339;49.754;20.158;2024-03-22T06:09:34;41.80;;;35.00;;
34064;SDS011;20339;49.754;20.158;2024-03-22T06:12:13;37.70;;;29.90;;
34064;SDS011;20339;49.754;20.158;2024-03-22T06:14:45;38.70;;;31.20;;
34064;SDS011;20339;49.754;20.158;2024-03-22T06:17:18;35.70;;;29.60;;
34064;SDS011;20339;49.754;20.158;2024-03-22T06:19:49;41.50;;;33.30;;
34064;SDS011;20339;49.754;20.158;2024-03-22T06:22:20;42.60;;;30.90;;
34064;SDS011;20339;49.754;20.158;2024-03-22T06:24:51;41.00;;;31.10;;
34064;SDS011;20339;49.754;20.158;2024-03-22T06:27:21;37.20;;;30.30;;
34064;SDS011;20339;49.754;20.158;2024-03-22T06:29:52;42.60;;;35.00;;
34064;SDS011;20339;49.754;20.158;2024-03-22T06:32:23;40.00;;;33.20;;
34064;SDS011;20339;49.754;20.158;2024-03-22T06:34:53;36.20;;;28.70;;
34064;SDS011;20339;49.754;20.158;2024-03-22T06:37:25;36.90;;;29.00;;
34064;SDS011;20339;49.754;20.158;2024-03-22T06:39:55;36.90;;;30.60;;
34064;SDS011;20339;49.754;20.158;2024-03-22T06:42:26;41.30;;;33.30;;
34064;SDS011;20339;49.754;20.158;2024-03-22T06:44:57;38.10;;;32.10;;
34064;SDS011;20339;49.754;20.158;2024-03-22T06:47:28;36.10;;;28.70;;
34064;SDS011;20339;49.754;20.158;2024-03-22T06:49:58;37.00;;;29.00;;
34064;SDS011;20339;49.754;20.158;2024-03-22T06:52:29;33.80;;;28.60;;
34064;SDS011;20339;49.754;20.158;2024-03-22T06:55:00;31.70;;;26.70;;
34064;SDS011;20339;49.754;20.158;2024-03-22T06:57:32;37.60;;;30.50;;
34064;SDS011;20339;49.754;20.158;2024-03-22T07:00:02;32.60;;;27.80;;
34064;SDS011;20339;49.754;20.158;2024-03-22T07:02:37;27.00;;;24.00;;
34064;SDS011;20339;49.754;20.158;2024-03-22T07:05:09;33.00;;;26.80;;
34064;SDS011;20339;49.754;20.158;2024-03-22T07:07:40;31.50;;;26.90;;
34064;SDS011;20339;49.754;20.158;2024-03-22T07:10:11;32.40;;;27.40;;
34064;SDS011;20339;49.754;20.158;2024-03-22T07:12:42;25.80;;;21.80;;
34064;SDS011;20339;49.754;20.158;2024-03-22T07:15:13;27.00;;;23.00;;
34064;SDS011;20339;49.754;20.158;2024-03-22T07:17:43;24.70;;;21.50;;
34064;SDS011;20339;49.754;20.158;2024-03-22T07:20:14;24.70;;;21.90;;
34064;SDS011;20339;49.754;20.158;2024-03-22T07:22:46;28.00;;;23.60;;
34064;SDS011;20339;49.754;20.158;2024-03-22T07:25:17;26.00;;;21.10;;
34064;SDS011;20339;49.754;20.158;2024-03-22T07:27:48;28.00;;;24.80;;
34064;SDS011;20339;49.754;20.158;2024-03-22T07:30:19;25.60;;;20.90;;
34064;SDS011;20339;49.754;20.158;2024-03-22T07:32:49;23.90;;;20.90;;
34064;SDS011;20339;49.754;20.158;2024-03-22T07:35:20;25.60;;;21.40;;
34064;SDS011;20339;49.754;20.158;2024-03-22T07:37:52;27.00;;;23.70;;
34064;SDS011;20339;49.754;20.158;2024-03-22T07:40:25;28.20;;;22.40;;
34064;SDS011;20339;49.754;20.158;2024-03-22T07:42:56;25.70;;;21.50;;
34064;SDS011;20339;49.754;20.158;2024-03-22T07:45:27;27.40;;;22.60;;
34064;SDS011;20339;49.754;20.158;2024-03-22T07:48:00;26.60;;;23.60;;
34064;SDS011;20339;49.754;20.158;2024-03-22T07:50:31;25.20;;;20.80;;
34064;SDS011;20339;49.754;20.158;2024-03-22T07:53:02;26.60;;;21.40;;
34064;SDS011;20339;49.754;20.158;2024-03-22T07:55:32;22.30;;;17.80;;
34064;SDS011;20339;49.754;20.158;2024-03-22T07:58:04;25.60;;;20.80;;
34064;SDS011;20339;49.754;20.158;2024-03-22T08:00:37;26.00;;;22.40;;
34064;SDS011;20339;49.754;20.158;2024-03-22T08:03:08;25.70;;;20.90;;
34064;SDS011;20339;49.754;20.158;2024-03-22T08:05:44;24.20;;;21.00;;
34064;SDS011;20339;49.754;20.158;2024-03-22T08:08:15;24.10;;;20.10;;
34064;SDS011;20339;49.754;20.158;2024-03-22T08:10:46;27.10;;;21.80;;
34064;SDS011;20339;49.754;20.158;2024-03-22T08:13:17;27.90;;;23.00;;
34064;SDS011;20339;49.754;20.158;2024-03-22T08:15:48;26.90;;;22.70;;
34064;SDS011;20339;49.754;20.158;2024-03-22T08:18:18;27.00;;;23.00;;
34064;SDS011;20339;49.754;20.158;2024-03-22T08:20:49;28.80;;;25.30;;
34064;SDS011;20339;49.754;20.158;2024-03-22T08:23:20;28.80;;;25.50;;
34064;SDS011;20339;49.754;20.158;2024-03-22T08:25:51;25.20;;;21.90;;
34064;SDS011;20339;49.754;20.158;2024-03-22T08:28:21;28.20;;;23.30;;
34064;SDS011;20339;49.754;20.158;2024-03-22T08:30:52;29.50;;;24.90;;
34064;SDS011;20339;49.754;20.158;2024-03-22T08:33:23;27.70;;;24.50;;
34064;SDS011;20339;49.754;20.158;2024-03-22T08:35:53;26.10;;;23.30;;
34064;SDS011;20339;49.754;20.158;2024-03-22T08:38:24;25.30;;;21.90;;
34064;SDS011;20339;49.754;20.158;2024-03-22T08:40:55;28.60;;;23.60;;
34064;SDS011;20339;49.754;20.158;2024-03-22T08:43:25;28.30;;;24.20;;
34064;SDS011;20339;49.754;20.158;2024-03-22T08:45:56;26.20;;;23.10;;
34064;SDS011;20339;49.754;20.158;2024-03-22T08:48:27;26.60;;;23.40;;
34064;SDS011;20339;49.754;20.158;2024-03-22T08:50:58;22.80;;;20.00;;
34064;SDS011;20339;49.754;20.158;2024-03-22T08:53:29;26.60;;;21.60;;
34064;SDS011;20339;49.754;20.158;2024-03-22T08:56:00;23.70;;;19.90;;
34064;SDS011;20339;49.754;20.158;2024-03-22T08:58:31;26.70;;;22.20;;
34064;SDS011;20339;49.754;20.158;2024-03-22T09:01:01;27.00;;;23.50;;
34064;SDS011;20339;49.754;20.158;2024-03-22T09:03:32;28.10;;;22.70;;
34064;SDS011;20339;49.754;20.158;2024-03-22T09:06:03;26.20;;;21.70;;
34064;SDS011;20339;49.754;20.158;2024-03-22T09:08:34;27.30;;;22.40;;
34064;SDS011;20339;49.754;20.158;2024-03-22T09:11:07;25.60;;;21.70;;
34064;SDS011;20339;49.754;20.158;2024-03-22T09:13:38;30.20;;;21.30;;
34064;SDS011;20339;49.754;20.158;2024-03-22T09:16:10;26.10;;;22.10;;
34064;SDS011;20339;49.754;20.158;2024-03-22T09:18:40;26.40;;;20.80;;
34064;SDS011;20339;49.754;20.158;2024-03-22T09:21:11;26.70;;;21.10;;
34064;SDS011;20339;49.754;20.158;2024-03-22T09:23:42;31.60;;;22.80;;
34064;SDS011;20339;49.754;20.158;2024-03-22T09:26:17;27.90;;;23.00;;
34064;SDS011;20339;49.754;20.158;2024-03-22T09:28:48;27.80;;;23.40;;
34064;SDS011;20339;49.754;20.158;2024-03-22T09:31:19;25.40;;;22.00;;
34064;SDS011;20339;49.754;20.158;2024-03-22T09:33:50;23.00;;;20.30;;
34064;SDS011;20339;49.754;20.158;2024-03-22T09:36:21;27.00;;;24.20;;
34064;SDS011;20339;49.754;20.158;2024-03-22T09:38:54;27.60;;;24.40;;
34064;SDS011;20339;49.754;20.158;2024-03-22T09:41:26;29.10;;;22.90;;
34064;SDS011;20339;49.754;20.158;2024-03-22T09:43:58;23.00;;;19.60;;
34064;SDS011;20339;49.754;20.158;2024-03-22T09:46:31;43.00;;;31.10;;
34064;SDS011;20339;49.754;20.158;2024-03-22T09:49:06;26.60;;;23.70;;
34064;SDS011;20339;49.754;20.158;2024-03-22T09:51:39;27.70;;;23.60;;
34064;SDS011;20339;49.754;20.158;2024-03-22T09:54:10;27.30;;;24.30;;
34064;SDS011;20339;49.754;20.158;2024-03-22T09:56:41;24.20;;;20.00;;
34064;SDS011;20339;49.754;20.158;2024-03-22T09:59:13;25.20;;;22.50;;
34064;SDS011;20339;49.754;20.158;2024-03-22T10:01:43;23.40;;;20.70;;
34064;SDS011;20339;49.754;20.158;2024-03-22T10:04:15;28.80;;;22.80;;
34064;SDS011;20339;49.754;20.158;2024-03-22T10:06:48;67.40;;;41.90;;
34064;SDS011;20339;49.754;20.158;2024-03-22T10:09:19;39.60;;;29.50;;
34064;SDS011;20339;49.754;20.158;2024-03-22T10:11:56;45.50;;;35.00;;
34064;SDS011;20339;49.754;20.158;2024-03-22T10:14:27;25.40;;;22.70;;
34064;SDS011;20339;49.754;20.158;2024-03-22T10:16:58;30.40;;;24.90;;
34064;SDS011;20339;49.754;20.158;2024-03-22T10:19:29;27.80;;;24.80;;
34064;SDS011;20339;49.754;20.158;2024-03-22T10:22:03;34.60;;;30.90;;
34064;SDS011;20339;49.754;20.158;2024-03-22T10:24:34;30.00;;;26.60;;
34064;SDS011;20339;49.754;20.158;2024-03-22T10:27:05;22.70;;;19.90;;
34064;SDS011;20339;49.754;20.158;2024-03-22T10:29:36;25.20;;;22.40;;
34064;SDS011;20339;49.754;20.158;2024-03-22T10:32:10;21.80;;;19.40;;
34064;SDS011;20339;49.754;20.158;2024-03-22T10:34:41;28.50;;;23.60;;
34064;SDS011;20339;49.754;20.158;2024-03-22T10:37:15;39.50;;;31.60;;
34064;SDS011;20339;49.754;20.158;2024-03-22T10:39:46;24.90;;;22.00;;
34064;SDS011;20339;49.754;20.158;2024-03-22T10:42:21;25.90;;;22.40;;
34064;SDS011;20339;49.754;20.158;2024-03-22T10:44:52;28.80;;;24.90;;
34064;SDS011;20339;49.754;20.158;2024-03-22T10:47:24;30.00;;;24.10;;
34064;SDS011;20339;49.754;20.158;2024-03-22T10:50:00;29.30;;;23.90;;
34064;SDS011;20339;49.754;20.158;2024-03-22T10:52:36;26.90;;;23.40;;
34064;SDS011;20339;49.754;20.158;2024-03-22T10:55:13;24.50;;;21.70;;
34064;SDS011;20339;49.754;20.158;2024-03-22T10:57:48;25.50;;;21.40;;
34064;SDS011;20339;49.754;20.158;2024-03-22T11:00:20;26.60;;;23.50;;
34064;SDS011;20339;49.754;20.158;2024-03-22T11:02:57;27.90;;;24.20;;
34064;SDS011;20339;49.754;20.158;2024-03-22T11:05:31;28.60;;;24.10;;
34064;SDS011;20339;49.754;20.158;2024-03-22T11:08:02;23.10;;;20.30;;
34064;SDS011;20339;49.754;20.158;2024-03-22T11:10:34;25.20;;;20.50;;
34064;SDS011;20339;49.754;20.158;2024-03-22T11:13:08;27.10;;;24.00;;
34064;SDS011;20339;49.754;20.158;2024-03-22T11:15:39;29.80;;;23.60;;
34064;SDS011;20339;49.754;20.158;2024-03-22T11:18:10;25.20;;;20.40;;
34064;SDS011;20339;49.754;20.158;2024-03-22T11:20:41;25.40;;;20.20;;
34064;SDS011;20339;49.754;20.158;2024-03-22T11:23:13;26.30;;;21.20;;
34064;SDS011;20339;49.754;20.158;2024-03-22T11:25:45;26.80;;;22.70;;
34064;SDS011;20339;49.754;20.158;2024-03-22T11:28:16;24.70;;;19.80;;
34064;SDS011;20339;49.754;20.158;2024-03-22T11:30:47;27.00;;;21.60;;
34064;SDS011;20339;49.754;20.158;2024-03-22T11:33:18;25.10;;;20.80;;
34064;SDS011;20339;49.754;20.158;2024-03-22T11:35:49;24.70;;;19.70;;
34064;SDS011;20339;49.754;20.158;2024-03-22T11:38:20;32.80;;;24.40;;
34064;SDS011;20339;49.754;20.158;2024-03-22T11:40:55;28.00;;;21.70;;
34064;SDS011;20339;49.754;20.158;2024-03-22T11:43:27;23.80;;;21.10;;
34064;SDS011;20339;49.754;20.158;2024-03-22T11:45:59;23.00;;;20.50;;
34064;SDS011;20339;49.754;20.158;2024-03-22T11:48:30;27.70;;;22.30;;
34064;SDS011;20339;49.754;20.158;2024-03-22T11:51:01;28.80;;;24.30;;
34064;SDS011;20339;49.754;20.158;2024-03-22T11:53:32;25.90;;;20.70;;
34064;SDS011;20339;49.754;20.158;2024-03-22T11:56:04;23.10;;;19.90;;
34064;SDS011;20339;49.754;20.158;2024-03-22T11:58:37;24.80;;;19.40;;
34064;SDS011;20339;49.754;20.158;2024-03-22T12:01:08;23.90;;;20.60;;
34064;SDS011;20339;49.754;20.158;2024-03-22T12:03:39;27.00;;;23.80;;
34064;SDS011;20339;49.754;20.158;2024-03-22T12:06:16;29.00;;;24.70;;
34064;SDS011;20339;49.754;20.158;2024-03-22T12:08:46;36.50;;;29.00;;
34064;SDS011;20339;49.754;20.158;2024-03-22T12:11:17;34.60;;;27.40;;
34064;SDS011;20339;49.754;20.158;2024-03-22T12:13:48;26.10;;;21.90;;
34064;SDS011;20339;49.754;20.158;2024-03-22T12:16:19;27.20;;;24.20;;
34064;SDS011;20339;49.754;20.158;2024-03-22T12:18:50;24.50;;;20.50;;
34064;SDS011;20339;49.754;20.158;2024-03-22T12:21:20;26.80;;;22.90;;
34064;SDS011;20339;49.754;20.158;2024-03-22T12:23:54;27.60;;;22.30;;
34064;SDS011;20339;49.754;20.158;2024-03-22T12:26:25;28.40;;;23.80;;
34064;SDS011;20339;49.754;20.158;2024-03-22T12:28:56;23.60;;;21.10;;
34064;SDS011;20339;49.754;20.158;2024-03-22T12:31:27;25.20;;;21.40;;
34064;SDS011;20339;49.754;20.158;2024-03-22T12:34:00;22.90;;;18.90;;
34064;SDS011;20339;49.754;20.158;2024-03-22T12:36:31;27.10;;;21.50;;
34064;SDS011;20339;49.754;20.158;2024-03-22T12:39:02;25.10;;;19.20;;
34064;SDS011;20339;49.754;20.158;2024-03-22T12:41:33;25.00;;;20.50;;
34064;SDS011;20339;49.754;20.158;2024-03-22T12:44:14;25.30;;;20.70;;
34064;SDS011;20339;49.754;20.158;2024-03-22T12:46:44;23.10;;;19.10;;
34064;SDS011;20339;49.754;20.158;2024-03-22T12:49:15;25.20;;;21.20;;
34064;SDS011;20339;49.754;20.158;2024-03-22T12:51:46;27.50;;;21.00;;
34064;SDS011;20339;49.754;20.158;2024-03-22T12:54:18;26.90;;;21.30;;
34064;SDS011;20339;49.754;20.158;2024-03-22T12:56:49;25.40;;;19.60;;
34064;SDS011;20339;49.754;20.158;2024-03-22T12:59:19;23.60;;;19.60;;
34064;SDS011;20339;49.754;20.158;2024-03-22T13:01:50;24.10;;;19.50;;
34064;SDS011;20339;49.754;20.158;2024-03-22T13:04:21;21.80;;;18.30;;
34064;SDS011;20339;49.754;20.158;2024-03-22T13:06:52;21.90;;;18.00;;
34064;SDS011;20339;49.754;20.158;2024-03-22T13:09:23;22.60;;;19.50;;
34064;SDS011;20339;49.754;20.158;2024-03-22T13:11:54;26.60;;;21.20;;
34064;SDS011;20339;49.754;20.158;2024-03-22T13:14:25;24.60;;;19.80;;
34064;SDS011;20339;49.754;20.158;2024-03-22T13:16:56;25.30;;;21.00;;
34064;SDS011;20339;49.754;20.158;2024-03-22T13:19:26;26.90;;;22.90;;
34064;SDS011;20339;49.754;20.158;2024-03-22T13:21:57;25.50;;;21.90;;
34064;SDS011;20339;49.754;20.158;2024-03-22T13:24:27;22.50;;;19.40;;
34064;SDS011;20339;49.754;20.158;2024-03-22T13:26:58;19.60;;;16.30;;
34064;SDS011;20339;49.754;20.158;2024-03-22T13:29:31;24.90;;;20.30;;
34064;SDS011;20339;49.754;20.158;2024-03-22T13:32:01;24.00;;;20.00;;
34064;SDS011;20339;49.754;20.158;2024-03-22T13:34:35;25.20;;;20.90;;
34064;SDS011;20339;49.754;20.158;2024-03-22T13:37:08;25.30;;;21.60;;
34064;SDS011;20339;49.754;20.158;2024-03-22T13:39:39;29.00;;;24.20;;
34064;SDS011;20339;49.754;20.158;2024-03-22T13:42:13;25.30;;;20.80;;
34064;SDS011;20339;49.754;20.158;2024-03-22T13:44:44;25.20;;;19.90;;
34064;SDS011;20339;49.754;20.158;2024-03-22T13:47:15;29.80;;;25.00;;
34064;SDS011;20339;49.754;20.158;2024-03-22T13:49:46;25.00;;;22.10;;
34064;SDS011;20339;49.754;20.158;2024-03-22T13:52:17;34.50;;;29.10;;
34064;SDS011;20339;49.754;20.158;2024-03-22T13:54:49;30.70;;;24.70;;
34064;SDS011;20339;49.754;20.158;2024-03-22T13:57:25;27.00;;;22.20;;
34064;SDS011;20339;49.754;20.158;2024-03-22T13:59:56;29.30;;;23.40;;
34064;SDS011;20339;49.754;20.158;2024-03-22T14:02:26;27.80;;;23.50;;
34064;SDS011;20339;49.754;20.158;2024-03-22T14:04:59;31.70;;;27.10;;
34064;SDS011;20339;49.754;20.158;2024-03-22T14:07:33;32.20;;;26.60;;
34064;SDS011;20339;49.754;20.158;2024-03-22T14:10:08;27.20;;;22.90;;
34064;SDS011;20339;49.754;20.158;2024-03-22T14:12:40;26.40;;;23.30;;
34064;SDS011;20339;49.754;20.158;2024-03-22T14:15:11;25.80;;;21.40;;
34064;SDS011;20339;49.754;20.158;2024-03-22T14:17:42;29.10;;;24.40;;
34064;SDS011;20339;49.754;20.158;2024-03-22T14:20:13;28.00;;;23.30;;
34064;SDS011;20339;49.754;20.158;2024-03-22T14:22:46;31.60;;;27.50;;
34064;SDS011;20339;49.754;20.158;2024-03-22T14:25:17;25.50;;;21.10;;
34064;SDS011;20339;49.754;20.158;2024-03-22T14:27:49;25.80;;;21.40;;
34064;SDS011;20339;49.754;20.158;2024-03-22T14:30:21;30.30;;;27.10;;
34064;SDS011;20339;49.754;20.158;2024-03-22T14:32:53;34.00;;;28.30;;